Time;durP1;ratioP1;P1;durP2;ratioP2;P2;SDS_P1;SDS_P2;PMS_P1;PMS_P2;Temp;Humidity;BMP_temperature;BMP_pressure;BME280_temperature;BME280_humidity;BME280_pressure;Samples;Min_cycle;Max_cycle;Signal;HPM_P1;HPM_P2
2021/06/17 00:04:56;;;;;;;;;24.00;24.00;;;;;;;;8847833;40;9945;-58
2021/06/17 00:10:58;;;;;;;;;21.33;18.33;;;;;;;;8846940;40;10085;-57
2021/06/17 00:17:02;;;;;;;;;22.33;20.00;;;;;;;;8846505;40;9911;-57
2021/06/17 00:23:05;;;;;;;;;19.67;18.00;;;;;;;;8846310;40;9999;-58
2021/06/17 00:29:07;;;;;;;;;19.33;19.33;;;;;;;;8846954;40;9876;-58
2021/06/17 00:35:10;;;;;;;;;23.67;21.00;;;;;;;;8846351;40;9888;-58
2021/06/17 00:41:13;;;;;;;;;21.00;20.00;;;;;;;;8836980;40;10018;-58
2021/06/17 00:47:15;;;;;;;;;24.00;21.00;;;;;;;;8846102;40;10123;-60
2021/06/17 00:53:26;;;;;;;;;18.33;17.67;;;;;;;;8846299;40;9933;-58
2021/06/17 00:59:28;;;;;;;;;21.00;20.00;;;;;;;;8845642;40;9959;-58
2021/06/17 01:05:31;;;;;;;;;20.67;20.67;;;;;;;;8847172;40;9892;-58
2021/06/17 01:12:00;;;;;;;;;20.00;19.00;;;;;;;;8845821;40;10242;-58
2021/06/17 01:18:09;;;;;;;;;23.33;22.00;;;;;;;;8840918;40;9972;-58
2021/06/17 01:24:44;;;;;;;;;21.00;21.00;;;;;;;;8846945;40;10870;-58
2021/06/17 01:30:55;;;;;;;;;23.00;22.33;;;;;;;;8848400;40;9889;-58
2021/06/17 01:37:20;;;;;;;;;23.00;20.33;;;;;;;;8849971;40;9941;-58
2021/06/17 01:43:23;;;;;;;;;20.67;20.00;;;;;;;;8848777;40;10009;-58
2021/06/17 01:49:26;;;;;;;;;21.67;21.67;;;;;;;;8849605;40;10503;-58
2021/06/17 01:55:35;;;;;;;;;22.33;21.67;;;;;;;;8848239;40;10075;-59
2021/06/17 02:01:37;;;;;;;;;19.67;18.67;;;;;;;;8849160;40;10156;-58
2021/06/17 02:07:43;;;;;;;;;25.67;22.33;;;;;;;;8848356;40;9882;-59
2021/06/17 02:13:50;;;;;;;;;23.67;23.67;;;;;;;;8849169;40;10551;-58
2021/06/17 02:19:52;;;;;;;;;27.00;25.33;;;;;;;;8848119;40;9948;-58
2021/06/17 02:25:56;;;;;;;;;20.33;20.00;;;;;;;;8848994;40;10419;-58
2021/06/17 02:31:58;;;;;;;;;24.00;22.00;;;;;;;;8602150;40;9999850;-57
2021/06/17 02:38:03;;;;;;;;;20.67;20.67;;;;;;;;8850547;40;10485;-58
2021/06/17 02:44:06;;;;;;;;;22.67;19.67;;;;;;;;8847823;40;9884;-59
2021/06/17 02:50:09;;;;;;;;;25.00;18.33;;;;;;;;8848531;40;10036;-59
2021/06/17 02:56:16;;;;;;;;;21.00;20.33;;;;;;;;8848038;40;9923;-58
2021/06/17 03:02:24;;;;;;;;;21.33;20.67;;;;;;;;8848376;40;9928;-58
2021/06/17 03:08:30;;;;;;;;;21.33;20.00;;;;;;;;8848816;40;9943;-58
2021/06/17 03:14:35;;;;;;;;;17.33;15.33;;;;;;;;8839646;40;9927;-58
2021/06/17 03:20:41;;;;;;;;;18.67;18.67;;;;;;;;8847964;40;9955;-58
2021/06/17 03:26:47;;;;;;;;;18.67;17.67;;;;;;;;8846877;40;9960;-58
2021/06/17 03:32:50;;;;;;;;;22.00;21.33;;;;;;;;8847360;40;10015;-58
2021/06/17 03:38:53;;;;;;;;;20.67;19.67;;;;;;;;8847460;40;9872;-58
2021/06/17 03:44:57;;;;;;;;;29.33;23.33;;;;;;;;8846743;40;10148;-58
2021/06/17 03:51:02;;;;;;;;;18.00;18.00;;;;;;;;8847390;40;10203;-58
2021/06/17 03:57:06;;;;;;;;;20.33;18.00;;;;;;;;8847219;40;10214;-58
2021/06/17 04:03:10;;;;;;;;;21.00;21.00;;;;;;;;9939486;23;9904;-62
2021/06/17 04:09:13;;;;;;;;;24.00;21.67;;;;;;;;8848815;40;10211;-63
2021/06/17 04:15:17;;;;;;;;;33.67;28.67;;;;;;;;8850359;40;9899;-60
2021/06/17 04:21:21;;;;;;;;;29.67;26.33;;;;;;;;8850713;40;9951;-63
2021/06/17 04:27:23;;;;;;;;;26.33;24.33;;;;;;;;8848948;40;10367;-61
2021/06/17 04:33:26;;;;;;;;;24.33;24.33;;;;;;;;8850239;40;10376;-61
2021/06/17 04:39:28;;;;;;;;;21.67;20.67;;;;;;;;8849709;40;10546;-60
2021/06/17 04:45:31;;;;;;;;;25.50;25.25;;;;;;;;8848774;40;11901;-60
2021/06/17 04:51:36;;;;;;;;;22.25;19.75;;;;;;;;8849034;40;10802;-61
2021/06/17 04:57:38;;;;;;;;;24.50;21.25;;;;;;;;8849229;40;10813;-60
2021/06/17 05:03:42;;;;;;;;;28.33;25.00;;;;;;;;8850130;40;10703;-61
2021/06/17 05:16:04;;;;;;;;;26.75;25.75;;;;;;;;8816865;40;10808;-62
2021/06/17 05:22:08;;;;;;;;;24.75;21.25;;;;;;;;8826885;40;11325;-63
2021/06/17 05:28:15;;;;;;;;;24.50;20.75;;;;;;;;8826436;40;10732;-61
2021/06/17 05:34:17;;;;;;;;;25.25;22.25;;;;;;;;8825218;40;10607;-63
2021/06/17 05:40:19;;;;;;;;;22.00;19.25;;;;;;;;8828019;40;10545;-62
2021/06/17 05:46:20;;;;;;;;;23.50;22.00;;;;;;;;8825259;40;10593;-61
2021/06/17 05:52:22;;;;;;;;;20.50;20.50;;;;;;;;8823644;40;10428;-63
2021/06/17 05:58:24;;;;;;;;;25.25;23.75;;;;;;;;8823861;40;10450;-62
2021/06/17 06:04:26;;;;;;;;;26.00;24.00;;;;;;;;8828639;40;10359;-67
2021/06/17 06:10:30;;;;;;;;;18.75;17.25;;;;;;;;8824298;40;11009;-61
2021/06/17 06:16:34;;;;;;;;;17.25;15.75;;;;;;;;8825011;40;10331;-63
2021/06/17 06:22:36;;;;;;;;;18.50;17.00;;;;;;;;8825423;40;10427;-60
2021/06/17 06:28:38;;;;;;;;;17.00;17.00;;;;;;;;8825830;40;10379;-62
2021/06/17 06:34:40;;;;;;;;;18.50;17.00;;;;;;;;8843076;40;10316;-64
2021/06/17 06:40:42;;;;;;;;;15.00;14.50;;;;;;;;8827969;40;10878;-61
2021/06/17 06:46:45;;;;;;;;;13.75;13.25;;;;;;;;8834698;40;10382;-63
2021/06/17 06:52:47;;;;;;;;;20.25;18.00;;;;;;;;8839428;40;10360;-63
2021/06/17 06:58:49;;;;;;;;;18.50;18.50;;;;;;;;8827198;40;11063;-63
2021/06/17 07:04:51;;;;;;;;;15.50;15.50;;;;;;;;8826978;40;10441;-62
2021/06/17 07:10:53;;;;;;;;;23.00;22.50;;;;;;;;8835289;40;10631;-62
2021/06/17 07:16:55;;;;;;;;;17.75;17.75;;;;;;;;8821492;40;10422;-63
2021/06/17 07:22:58;;;;;;;;;17.50;16.75;;;;;;;;8821924;40;11082;-61
2021/06/17 07:29:00;;;;;;;;;15.75;15.50;;;;;;;;8835327;40;10537;-65
2021/06/17 07:35:02;;;;;;;;;16.50;15.50;;;;;;;;8822786;40;10455;-64
2021/06/17 07:41:05;;;;;;;;;21.25;20.00;;;;;;;;8822267;40;11078;-61
2021/06/17 07:47:07;;;;;;;;;23.75;23.25;;;;;;;;8819708;40;10536;-62
2021/06/17 07:53:09;;;;;;;;;17.00;16.00;;;;;;;;8829770;40;10497;-62
2021/06/17 07:59:12;;;;;;;;;12.00;12.00;;;;;;;;8839712;40;10336;-62
2021/06/17 08:05:14;;;;;;;;;13.00;13.00;;;;;;;;8824185;40;10331;-61
2021/06/17 08:11:18;;;;;;;;;10.25;10.25;;;;;;;;8822107;40;11053;-66
2021/06/17 08:17:38;;;;;;;;;9.00;9.00;;;;;;;;8818547;40;10245;-64
2021/06/17 08:23:40;;;;;;;;;10.00;10.00;;;;;;;;8819817;40;10383;-63
2021/06/17 08:29:42;;;;;;;;;7.00;7.00;;;;;;;;8820645;40;10329;-63
2021/06/17 08:35:44;;;;;;;;;8.00;6.75;;;;;;;;8822336;40;10468;-63
2021/06/17 08:41:46;;;;;;;;;5.25;5.25;;;;;;;;8830909;40;10323;-64
2021/06/17 08:47:48;;;;;;;;;7.25;6.00;;;;;;;;8834348;40;10256;-63
2021/06/17 08:53:51;;;;;;;;;7.50;5.50;;;;;;;;8821063;40;10423;-63
2021/06/17 08:59:53;;;;;;;;;11.00;11.00;;;;;;;;8820845;40;10423;-61
2021/06/17 09:05:57;;;;;;;;;9.75;7.50;;;;;;;;8821248;40;11051;-62
2021/06/17 09:11:59;;;;;;;;;6.00;6.00;;;;;;;;8824391;40;10325;-62
2021/06/17 09:18:11;;;;;;;;;10.75;9.00;;;;;;;;8825403;40;10341;-62
2021/06/17 09:24:13;;;;;;;;;6.00;6.00;;;;;;;;8826404;40;10300;-63
2021/06/17 09:30:19;;;;;;;;;6.00;6.00;;;;;;;;8817998;40;10310;-61
2021/06/17 09:36:29;;;;;;;;;9.75;9.75;;;;;;;;8817769;40;10422;-63
2021/06/17 09:42:32;;;;;;;;;6.25;6.25;;;;;;;;8815964;40;10354;-64
2021/06/17 09:48:35;;;;;;;;;7.50;6.75;;;;;;;;8817215;40;10312;-64
2021/06/17 09:54:43;;;;;;;;;11.50;10.00;;;;;;;;8824525;40;10497;-62
2021/06/17 10:00:55;;;;;;;;;6.25;5.25;;;;;;;;8833845;40;10558;-63
2021/06/17 10:06:57;;;;;;;;;10.50;9.50;;;;;;;;8823926;40;10333;-63
2021/06/17 10:12:59;;;;;;;;;6.75;6.75;;;;;;;;8821463;40;10352;-63
2021/06/17 10:19:02;;;;;;;;;10.50;8.75;;;;;;;;8824358;40;10182;-63
2021/06/17 10:25:07;;;;;;;;;5.75;5.75;;;;;;;;8830074;40;10858;-63
2021/06/17 10:31:11;;;;;;;;;6.00;5.25;;;;;;;;8822509;40;10325;-64
2021/06/17 10:37:25;;;;;;;;;9.00;6.00;;;;;;;;8813166;40;10336;-61
2021/06/17 10:43:27;;;;;;;;;12.00;8.25;;;;;;;;8827858;40;10324;-63
2021/06/17 10:49:47;;;;;;;;;9.75;6.25;;;;;;;;8823538;40;10270;-63
2021/06/17 10:55:51;;;;;;;;;6.50;6.50;;;;;;;;8823186;40;10401;-63
2021/06/17 11:02:07;;;;;;;;;6.00;6.00;;;;;;;;8822816;40;10322;-63
2021/06/17 11:08:13;;;;;;;;;12.50;11.00;;;;;;;;8776014;40;10761;-62
2021/06/17 11:14:20;;;;;;;;;6.25;6.25;;;;;;;;8773990;40;10562;-62
2021/06/17 11:20:34;;;;;;;;;8.00;8.00;;;;;;;;8771770;40;10968;-60
2021/06/17 11:26:41;;;;;;;;;10.00;9.00;;;;;;;;8764591;40;10469;-61
2021/06/17 11:33:18;;;;;;;;;10.00;10.00;;;;;;;;8768513;40;10684;-62
2021/06/17 11:39:22;;;;;;;;;9.00;9.00;;;;;;;;8774375;40;10508;-63
2021/06/17 11:45:36;;;;;;;;;8.50;7.75;;;;;;;;8773090;40;10244;-62
2021/06/17 11:51:47;;;;;;;;;11.50;10.25;;;;;;;;8763666;40;10657;-62
2021/06/17 11:57:50;;;;;;;;;10.00;10.00;;;;;;;;8780366;40;10516;-63
2021/06/17 12:04:01;;;;;;;;;6.25;6.25;;;;;;;;8788402;40;10778;-65
2021/06/17 12:10:17;;;;;;;;;10.75;10.00;;;;;;;;8831852;40;10342;-65
2021/06/17 12:16:22;;;;;;;;;8.25;8.25;;;;;;;;8817171;40;10277;-63
2021/06/17 12:22:25;;;;;;;;;11.25;11.00;;;;;;;;8821918;40;10373;-62
2021/06/17 12:28:28;;;;;;;;;8.75;8.25;;;;;;;;8822721;40;10674;-62
2021/06/17 12:34:43;;;;;;;;;10.00;9.00;;;;;;;;8822455;40;10281;-62
2021/06/17 12:40:44;;;;;;;;;12.00;12.00;;;;;;;;8821601;40;10442;-61
2021/06/17 12:46:54;;;;;;;;;10.00;10.00;;;;;;;;8823350;40;10460;-63
2021/06/17 12:53:00;;;;;;;;;15.00;15.00;;;;;;;;8820825;40;10354;-62
2021/06/17 12:59:02;;;;;;;;;15.25;13.75;;;;;;;;8821262;40;10292;-62
2021/06/17 13:05:10;;;;;;;;;14.25;12.50;;;;;;;;8820807;40;10408;-62
2021/06/17 13:11:12;;;;;;;;;16.00;13.25;;;;;;;;8819386;40;10516;-63
2021/06/17 13:17:18;;;;;;;;;21.00;19.25;;;;;;;;8820450;40;10992;-62
2021/06/17 13:23:35;;;;;;;;;14.50;13.25;;;;;;;;8820928;40;10407;-63
2021/06/17 13:30:00;;;;;;;;;14.25;12.00;;;;;;;;8820884;40;10314;-61
2021/06/17 13:36:03;;;;;;;;;29.75;27.00;;;;;;;;8816519;40;10619;-62
2021/06/17 13:42:06;;;;;;;;;11.25;10.00;;;;;;;;8816372;40;10385;-62
2021/06/17 13:48:09;;;;;;;;;7.00;7.00;;;;;;;;8828405;40;10475;-61
2021/06/17 13:54:11;;;;;;;;;10.25;10.00;;;;;;;;8826693;40;10383;-63
2021/06/17 14:00:16;;;;;;;;;10.00;10.00;;;;;;;;8828925;40;10273;-62
2021/06/17 14:06:18;;;;;;;;;11.00;9.75;;;;;;;;8852085;40;10331;-62
2021/06/17 14:12:22;;;;;;;;;16.00;16.00;;;;;;;;8835971;40;10535;-62
2021/06/17 14:18:24;;;;;;;;;12.25;11.00;;;;;;;;8827476;40;10416;-62
2021/06/17 14:24:26;;;;;;;;;14.75;12.00;;;;;;;;8827239;40;10315;-62
2021/06/17 14:30:28;;;;;;;;;21.00;21.00;;;;;;;;8827311;40;10989;-64
2021/06/17 14:36:31;;;;;;;;;13.50;13.50;;;;;;;;8825762;40;11260;-63
2021/06/17 14:42:34;;;;;;;;;12.00;12.00;;;;;;;;8825447;40;10389;-63
2021/06/17 14:48:37;;;;;;;;;14.75;13.50;;;;;;;;8827322;40;10338;-64
2021/06/17 14:54:38;;;;;;;;;9.50;9.50;;;;;;;;8825930;40;10278;-63
2021/06/17 15:00:40;;;;;;;;;13.50;13.50;;;;;;;;8828169;40;10271;-64
2021/06/17 15:06:43;;;;;;;;;12.50;12.50;;;;;;;;8851529;40;10476;-65
2021/06/17 15:12:45;;;;;;;;;15.00;12.25;;;;;;;;8838815;40;10499;-62
2021/06/17 15:18:47;;;;;;;;;10.50;9.00;;;;;;;;8826792;40;10478;-63
2021/06/17 15:24:50;;;;;;;;;11.00;11.00;;;;;;;;8843454;40;10345;-65
2021/06/17 15:30:52;;;;;;;;;11.25;9.25;;;;;;;;8850364;40;10276;-63
2021/06/17 15:36:55;;;;;;;;;8.50;8.50;;;;;;;;8851242;40;10266;-62
2021/06/17 15:42:57;;;;;;;;;12.75;12.75;;;;;;;;8849423;40;10448;-65
2021/06/17 15:49:02;;;;;;;;;13.75;12.50;;;;;;;;8851131;40;10368;-63
2021/06/17 15:55:06;;;;;;;;;10.25;10.25;;;;;;;;8835562;40;10464;-64
2021/06/17 16:01:08;;;;;;;;;12.00;11.75;;;;;;;;8835040;40;10426;-64
2021/06/17 16:07:10;;;;;;;;;11.50;10.00;;;;;;;;8826293;40;10411;-63
2021/06/17 16:13:12;;;;;;;;;9.75;9.50;;;;;;;;8828115;40;10328;-63
2021/06/17 16:19:15;;;;;;;;;11.00;10.00;;;;;;;;8831058;40;10841;-63
2021/06/17 16:25:19;;;;;;;;;14.00;11.00;;;;;;;;8825010;40;10493;-65
2021/06/17 16:31:21;;;;;;;;;10.00;9.00;;;;;;;;8825339;40;10284;-62
2021/06/17 16:37:23;;;;;;;;;10.50;9.50;;;;;;;;8824816;40;10319;-62
2021/06/17 16:43:25;;;;;;;;;10.00;9.50;;;;;;;;8824452;40;10482;-61
2021/06/17 16:49:27;;;;;;;;;10.00;10.00;;;;;;;;8825500;40;10309;-62
2021/06/17 16:55:29;;;;;;;;;12.25;11.00;;;;;;;;8823825;40;10920;-62
2021/06/17 17:01:31;;;;;;;;;13.75;13.00;;;;;;;;8826803;40;10820;-62
2021/06/17 17:07:34;;;;;;;;;9.00;9.00;;;;;;;;8829183;40;10310;-62
2021/06/17 17:13:36;;;;;;;;;15.75;13.75;;;;;;;;8828699;40;10417;-61
2021/06/17 17:19:38;;;;;;;;;17.25;12.75;;;;;;;;8829306;40;10369;-62
2021/06/17 17:25:40;;;;;;;;;12.25;12.00;;;;;;;;8827111;40;10600;-63
2021/06/17 17:31:43;;;;;;;;;12.50;12.50;;;;;;;;8827984;40;10369;-62
2021/06/17 17:37:45;;;;;;;;;17.00;13.75;;;;;;;;8827750;40;10379;-62
2021/06/17 17:43:47;;;;;;;;;14.75;14.75;;;;;;;;8827413;40;11105;-62
2021/06/17 17:49:49;;;;;;;;;12.25;11.50;;;;;;;;8828104;40;10498;-61
2021/06/17 17:55:55;;;;;;;;;13.00;12.50;;;;;;;;8827822;40;10382;-66
2021/06/17 18:01:57;;;;;;;;;12.25;12.25;;;;;;;;8827861;40;10489;-64
2021/06/17 18:08:00;;;;;;;;;14.50;13.00;;;;;;;;8851760;40;10411;-64
2021/06/17 18:14:02;;;;;;;;;18.75;17.50;;;;;;;;8849954;40;10382;-65
2021/06/17 18:20:05;;;;;;;;;13.50;9.50;;;;;;;;8852789;40;10425;-63
2021/06/17 18:26:09;;;;;;;;;17.25;16.00;;;;;;;;8840281;40;10501;-63
2021/06/17 18:32:12;;;;;;;;;16.50;13.00;;;;;;;;8826955;40;10326;-63
2021/06/17 18:38:15;;;;;;;;;11.25;11.25;;;;;;;;8835007;40;10391;-62
2021/06/17 18:44:18;;;;;;;;;11.25;10.50;;;;;;;;8850414;40;10984;-62
2021/06/17 18:50:20;;;;;;;;;12.00;12.00;;;;;;;;8841755;40;10565;-61
2021/06/17 18:56:36;;;;;;;;;11.75;11.75;;;;;;;;8850588;40;10360;-62
2021/06/17 19:02:38;;;;;;;;;11.75;11.75;;;;;;;;8851482;40;10300;-64
2021/06/17 19:08:40;;;;;;;;;12.25;11.25;;;;;;;;8850463;40;10567;-62
2021/06/17 19:14:43;;;;;;;;;12.25;11.25;;;;;;;;8849780;40;10481;-66
2021/06/17 19:20:48;;;;;;;;;11.50;10.75;;;;;;;;8850697;40;10439;-62
2021/06/17 19:26:50;;;;;;;;;10.75;10.75;;;;;;;;8849186;40;10350;-62
2021/06/17 19:32:53;;;;;;;;;13.00;10.00;;;;;;;;8850564;40;10408;-61
2021/06/17 19:38:55;;;;;;;;;13.25;11.00;;;;;;;;8840203;40;10493;-62
2021/06/17 19:44:57;;;;;;;;;10.50;10.50;;;;;;;;8825759;40;11128;-62
2021/06/17 19:51:03;;;;;;;;;12.75;12.75;;;;;;;;8826207;40;10795;-62
2021/06/17 19:57:09;;;;;;;;;10.25;10.25;;;;;;;;8825162;40;10948;-62
2021/06/17 20:03:11;;;;;;;;;7.50;7.50;;;;;;;;8826887;40;10995;-62
2021/06/17 20:09:13;;;;;;;;;11.25;11.25;;;;;;;;8824786;40;10529;-62
2021/06/17 20:15:16;;;;;;;;;11.75;10.25;;;;;;;;8824884;40;10484;-61
2021/06/17 20:21:18;;;;;;;;;10.50;9.50;;;;;;;;8826360;40;10425;-61
2021/06/17 20:27:20;;;;;;;;;12.25;12.25;;;;;;;;8825891;40;10613;-60
2021/06/17 20:33:21;;;;;;;;;14.50;14.50;;;;;;;;8816393;40;10402;-61
2021/06/17 20:39:25;;;;;;;;;13.50;13.25;;;;;;;;8825419;40;10514;-63
2021/06/17 20:45:27;;;;;;;;;14.75;14.75;;;;;;;;8825358;40;10540;-61
2021/06/17 20:51:29;;;;;;;;;15.75;15.25;;;;;;;;8825498;40;10796;-61
2021/06/17 20:57:32;;;;;;;;;18.75;16.25;;;;;;;;8824078;40;10665;-62
2021/06/17 21:03:33;;;;;;;;;19.00;15.00;;;;;;;;8824023;40;10574;-63
2021/06/17 21:09:36;;;;;;;;;17.00;15.50;;;;;;;;8814271;40;10753;-60
2021/06/17 21:15:37;;;;;;;;;17.00;15.25;;;;;;;;8799144;40;10703;-61
2021/06/17 21:21:40;;;;;;;;;24.00;20.50;;;;;;;;8800208;40;10954;-60
2021/06/17 21:27:42;;;;;;;;;19.25;15.25;;;;;;;;8800226;40;10972;-61
2021/06/17 21:33:43;;;;;;;;;17.00;15.50;;;;;;;;8800071;40;10690;-62
2021/06/17 21:39:46;;;;;;;;;22.50;20.50;;;;;;;;8799145;40;10711;-62
2021/06/17 21:45:49;;;;;;;;;19.00;19.00;;;;;;;;9024874;23;10813;-63
2021/06/17 21:51:51;;;;;;;;;19.33;18.33;;;;;;;;8828868;40;11160;-61
2021/06/17 21:57:53;;;;;;;;;21.00;18.25;;;;;;;;8827063;40;10858;-62
2021/06/17 22:03:55;;;;;;;;;20.75;20.25;;;;;;;;8827211;40;10870;-62
2021/06/17 22:09:59;;;;;;;;;21.25;18.75;;;;;;;;8827049;40;11311;-61
2021/06/17 22:16:01;;;;;;;;;15.50;14.50;;;;;;;;8828329;40;10703;-62
2021/06/17 22:22:03;;;;;;;;;18.00;16.00;;;;;;;;8825923;40;11049;-61
2021/06/17 22:28:05;;;;;;;;;11.25;11.25;;;;;;;;8827184;40;10920;-61
2021/06/17 22:34:07;;;;;;;;;15.50;13.25;;;;;;;;8826752;40;11377;-62
2021/06/17 22:40:10;;;;;;;;;16.25;15.50;;;;;;;;8827054;40;10848;-61
2021/06/17 22:46:14;;;;;;;;;13.25;12.50;;;;;;;;8826864;40;11021;-60
2021/06/17 22:52:16;;;;;;;;;17.50;17.50;;;;;;;;8826292;40;10731;-61
2021/06/17 22:58:20;;;;;;;;;17.50;14.25;;;;;;;;8826547;40;10916;-61
2021/06/17 23:04:24;;;;;;;;;16.75;13.75;;;;;;;;8827483;40;10652;-61
2021/06/17 23:10:26;;;;;;;;;12.25;12.25;;;;;;;;8825523;40;10999;-61
2021/06/17 23:16:28;;;;;;;;;13.67;13.67;;;;;;;;8826186;40;10639;-61
2021/06/17 23:22:30;;;;;;;;;17.25;17.25;;;;;;;;8827250;40;10744;-61
2021/06/17 23:28:32;;;;;;;;;18.00;18.00;;;;;;;;8826245;40;10565;-62
2021/06/17 23:34:34;;;;;;;;;17.00;14.67;;;;;;;;8825592;40;10870;-61
2021/06/17 23:40:37;;;;;;;;;20.25;17.00;;;;;;;;8825796;40;11476;-61
2021/06/17 23:46:41;;;;;;;;;20.00;17.33;;;;;;;;8827361;40;10677;-60
2021/06/17 23:52:44;;;;;;;;;15.75;15.75;;;;;;;;8824798;40;10869;-61
2021/06/17 23:58:47;;;;;;;;;17.33;17.33;;;;;;;;8825525;40;10287;-60
